createdAt,value
2018-06-12T00:00:13.943Z,978.72
2018-06-12T00:01:14.139Z,978.75
2018-06-12T00:02:14.345Z,978.78
2018-06-12T00:03:14.535Z,978.77
2018-06-12T00:04:14.734Z,978.75
2018-06-12T00:05:14.945Z,978.82
2018-06-12T00:06:15.133Z,978.78
2018-06-12T00:07:15.317Z,978.82
2018-06-12T00:08:15.526Z,978.84
2018-06-12T00:09:15.715Z,978.83
2018-06-12T00:10:15.924Z,978.81
2018-06-12T00:11:16.147Z,978.79
2018-06-12T00:12:16.331Z,978.80
2018-06-12T00:13:16.521Z,978.78
2018-06-12T00:14:16.705Z,978.78
2018-06-12T00:15:16.907Z,978.78
2018-06-12T00:16:17.097Z,978.77
2018-06-12T00:17:17.281Z,978.75
2018-06-12T00:18:17.469Z,978.75
2018-06-12T00:19:17.661Z,978.70
2018-06-12T00:20:17.866Z,978.70
2018-06-12T00:21:18.055Z,978.72
2018-06-12T00:22:18.274Z,978.73
2018-06-12T00:23:18.485Z,978.70
2018-06-12T00:25:50.634Z,978.76
2018-06-12T00:26:50.798Z,978.78
2018-06-12T00:27:51.002Z,978.82
2018-06-12T00:28:51.189Z,978.84
2018-06-12T00:29:51.380Z,978.85
2018-06-12T00:30:51.573Z,978.89
2018-06-12T00:31:51.770Z,978.92
2018-06-12T00:32:51.993Z,978.89
2018-06-12T00:33:52.175Z,978.91
2018-06-12T00:34:52.377Z,978.94
2018-06-12T00:35:52.581Z,978.97
2018-06-12T00:36:52.792Z,978.97
2018-06-12T00:37:52.999Z,978.98
2018-06-12T00:38:53.194Z,978.95
2018-06-12T00:39:53.415Z,978.98
2018-06-12T00:40:53.621Z,978.93
2018-06-12T00:41:53.844Z,978.94
2018-06-12T00:42:54.041Z,978.94
2018-06-12T00:43:54.242Z,978.91
2018-06-12T00:44:54.425Z,978.91
2018-06-12T00:45:54.610Z,978.93
2018-06-12T00:46:54.819Z,978.91
2018-06-12T00:47:55.015Z,978.91
2018-06-12T00:48:55.219Z,978.95
2018-06-12T00:49:55.417Z,978.95
2018-06-12T00:50:55.628Z,978.97
2018-06-12T00:51:55.838Z,978.93
2018-06-12T00:52:56.028Z,978.94
2018-06-12T00:53:56.227Z,978.91
2018-06-12T00:54:56.432Z,978.94
2018-06-12T00:55:56.646Z,978.93
2018-06-12T00:56:56.857Z,978.90
2018-06-12T00:57:57.029Z,978.88
2018-06-12T00:58:57.227Z,978.88
2018-06-12T00:59:57.414Z,978.83
2018-06-12T01:00:57.633Z,978.84
2018-06-12T01:01:57.849Z,978.83
2018-06-12T01:02:58.052Z,978.86
2018-06-12T01:03:58.275Z,978.86
2018-06-12T01:04:58.525Z,978.85
2018-06-12T01:05:58.612Z,978.86
2018-06-12T01:06:58.816Z,978.91
2018-06-12T01:07:59.016Z,978.94
2018-06-12T01:08:59.206Z,978.94
2018-06-12T01:09:59.403Z,978.96
2018-06-12T01:10:59.610Z,978.96
2018-06-12T01:11:59.820Z,979.02
2018-06-12T01:13:00.024Z,979.03
2018-06-12T01:14:00.213Z,979.04
2018-06-12T01:15:00.419Z,979.05
2018-06-12T01:16:00.609Z,979.07
2018-06-12T01:17:00.798Z,979.04
2018-06-12T01:18:00.982Z,979.02
2018-06-12T01:19:01.193Z,979.05
2018-06-12T01:20:01.411Z,979.05
2018-06-12T01:21:01.608Z,979.03
2018-06-12T01:22:01.804Z,979.03
2018-06-12T01:23:02.006Z,979.00
2018-06-12T01:24:02.219Z,979.01
2018-06-12T01:25:02.412Z,979.02
2018-06-12T01:26:02.616Z,979.04
2018-06-12T01:27:02.799Z,979.01
2018-06-12T01:28:03.000Z,979.00
2018-06-12T01:29:03.209Z,979.02
2018-06-12T01:30:03.402Z,979.00
2018-06-12T01:31:03.620Z,979.00
2018-06-12T01:32:03.829Z,979.04
2018-06-12T01:33:04.027Z,979.00
2018-06-12T01:34:04.237Z,979.00
2018-06-12T01:35:04.434Z,979.03
2018-06-12T01:36:04.624Z,978.99
2018-06-12T01:37:04.819Z,979.03
2018-06-12T01:38:05.034Z,979.01
2018-06-12T01:39:05.237Z,979.03
2018-06-12T01:40:05.454Z,979.02
2018-06-12T01:41:05.659Z,979.03
2018-06-12T01:42:05.852Z,979.06
2018-06-12T01:43:06.064Z,979.09
2018-06-12T01:44:06.273Z,979.09
2018-06-12T01:45:06.484Z,979.11
2018-06-12T01:46:06.677Z,979.12
2018-06-12T01:47:06.883Z,979.14
2018-06-12T01:48:07.093Z,979.17
2018-06-12T01:49:07.304Z,979.20
2018-06-12T01:50:07.516Z,979.22
2018-06-12T01:51:07.726Z,979.20
2018-06-12T01:53:39.600Z,979.29
2018-06-12T01:54:39.774Z,979.27
2018-06-12T01:55:39.967Z,979.27
2018-06-12T01:56:40.169Z,979.27
2018-06-12T01:57:40.370Z,979.30
2018-06-12T01:58:40.558Z,979.29
2018-06-12T01:59:40.762Z,979.30
2018-06-12T02:00:40.960Z,979.28
2018-06-12T02:01:41.167Z,979.26
2018-06-12T02:02:41.371Z,979.24
2018-06-12T02:03:41.571Z,979.26
2018-06-12T02:04:41.764Z,979.26
2018-06-12T02:05:41.977Z,979.25
2018-06-12T02:06:42.188Z,979.22
2018-06-12T02:07:42.385Z,979.24
2018-06-12T02:08:42.596Z,979.21
2018-06-12T02:09:42.789Z,979.16
2018-06-12T02:10:42.986Z,979.20
2018-06-12T02:11:43.206Z,979.17
2018-06-12T02:12:43.404Z,979.21
2018-06-12T02:13:43.613Z,979.19
2018-06-12T02:14:43.826Z,979.21
2018-06-12T02:15:44.116Z,979.20
2018-06-12T02:16:44.203Z,979.24
2018-06-12T02:17:44.421Z,979.22
2018-06-12T02:18:44.614Z,979.27
2018-06-12T02:19:44.829Z,979.27
2018-06-12T02:20:45.041Z,979.31
2018-06-12T02:21:45.239Z,979.36
2018-06-12T02:22:45.433Z,979.32
2018-06-12T02:23:45.636Z,979.36
2018-06-12T02:24:45.826Z,979.34
2018-06-12T02:25:46.011Z,979.32
2018-06-12T02:26:46.224Z,979.30
2018-06-12T02:27:46.428Z,979.31
2018-06-12T02:28:46.632Z,979.33
2018-06-12T02:29:46.823Z,979.32
2018-06-12T02:30:47.020Z,979.30
2018-06-12T02:31:47.228Z,979.29
2018-06-12T02:32:47.412Z,979.31
2018-06-12T02:33:47.606Z,979.32
2018-06-12T02:34:47.791Z,979.35
2018-06-12T02:35:47.999Z,979.30
2018-06-12T02:36:48.200Z,979.33
2018-06-12T02:37:48.404Z,979.30
2018-06-12T02:38:48.603Z,979.35
2018-06-12T02:39:48.791Z,979.33
2018-06-12T02:40:48.984Z,979.34
2018-06-12T02:41:49.187Z,979.37
2018-06-12T02:42:49.371Z,979.37
2018-06-12T02:43:49.579Z,979.36
2018-06-12T02:44:49.788Z,979.42
2018-06-12T02:47:21.601Z,979.41
2018-06-12T02:48:21.784Z,979.38
2018-06-12T02:49:21.973Z,979.39
2018-06-12T02:50:22.188Z,979.40
2018-06-12T02:51:22.397Z,979.42
2018-06-12T02:52:22.603Z,979.42
2018-06-12T02:53:22.807Z,979.42
2018-06-12T02:54:23.003Z,979.42
2018-06-12T02:55:23.194Z,979.43
2018-06-12T02:56:23.412Z,979.46
2018-06-12T02:57:23.600Z,979.45
2018-06-12T02:58:23.796Z,979.44
2018-06-12T02:59:23.980Z,979.43
2018-06-12T03:00:24.189Z,979.41
2018-06-12T03:01:24.389Z,979.42
2018-06-12T03:02:24.606Z,979.44
2018-06-12T03:03:24.816Z,979.42
2018-06-12T03:04:25.025Z,979.41
2018-06-12T03:05:25.254Z,979.43
2018-06-12T03:06:25.424Z,979.46
2018-06-12T03:07:25.622Z,979.43
2018-06-12T03:08:25.832Z,979.44
2018-06-12T03:09:26.018Z,979.45
2018-06-12T03:10:26.232Z,979.42
2018-06-12T03:11:26.429Z,979.44
2018-06-12T03:12:26.642Z,979.44
2018-06-12T03:13:26.843Z,979.40
2018-06-12T03:14:27.034Z,979.45
2018-06-12T03:15:27.235Z,979.41
2018-06-12T03:16:27.445Z,979.42
2018-06-12T03:17:27.635Z,979.42
2018-06-12T03:18:27.848Z,979.45
2018-06-12T03:19:28.071Z,979.47
2018-06-12T03:20:28.233Z,979.45
2018-06-12T03:21:28.440Z,979.43
2018-06-12T03:24:00.258Z,979.44
2018-06-12T03:25:00.433Z,979.44
2018-06-12T03:26:00.637Z,979.42
2018-06-12T03:27:00.852Z,979.46
2018-06-12T03:28:01.057Z,979.45
2018-06-12T03:29:01.245Z,979.43
2018-06-12T03:30:01.454Z,979.44
2018-06-12T03:31:01.663Z,979.42
2018-06-12T03:32:01.878Z,979.42
2018-06-12T03:33:02.098Z,979.44
2018-06-12T03:34:02.297Z,979.42
2018-06-12T03:35:02.479Z,979.47
2018-06-12T03:36:02.674Z,979.46
2018-06-12T03:37:02.876Z,979.48
2018-06-12T03:38:03.060Z,979.49
2018-06-12T03:39:03.255Z,979.51
2018-06-12T03:40:03.450Z,979.51
2018-06-12T03:41:03.641Z,979.47
2018-06-12T03:42:03.840Z,979.51
2018-06-12T03:43:04.049Z,979.50
2018-06-12T03:44:04.259Z,979.50
2018-06-12T03:45:04.460Z,979.47
2018-06-12T03:46:04.675Z,979.47
2018-06-12T03:47:04.884Z,979.50
2018-06-12T03:48:05.081Z,979.52
2018-06-12T03:49:05.279Z,979.55
2018-06-12T03:50:05.487Z,979.55
2018-06-12T03:51:05.683Z,979.58
2018-06-12T03:52:05.876Z,979.57
2018-06-12T03:53:06.084Z,979.56
2018-06-12T03:54:06.274Z,979.52
2018-06-12T03:55:06.469Z,979.54
2018-06-12T03:56:06.670Z,979.54
2018-06-12T03:57:06.881Z,979.51
2018-06-12T03:58:07.081Z,979.48
2018-06-12T03:59:07.276Z,979.48
2018-06-12T04:00:07.473Z,979.47
2018-06-12T04:01:07.673Z,979.45
2018-06-12T04:02:07.844Z,979.47
2018-06-12T04:03:08.056Z,979.42
2018-06-12T04:04:08.264Z,979.40
2018-06-12T04:05:08.459Z,979.38
2018-06-12T04:07:40.321Z,979.42
2018-06-12T04:08:40.487Z,979.38
2018-06-12T04:09:40.707Z,979.43
2018-06-12T04:10:40.895Z,979.37
2018-06-12T04:11:41.110Z,979.40
2018-06-12T04:12:41.331Z,979.40
2018-06-12T04:13:41.540Z,979.44
2018-06-12T04:14:41.794Z,979.46
2018-06-12T04:15:41.974Z,979.43
2018-06-12T04:18:14.001Z,979.46
2018-06-12T04:19:14.175Z,979.46
2018-06-12T04:20:14.402Z,979.48
2018-06-12T04:21:14.607Z,979.47
2018-06-12T04:22:14.814Z,979.49
2018-06-12T04:23:15.012Z,979.52
2018-06-12T04:24:15.221Z,979.51
2018-06-12T04:25:15.432Z,979.50
2018-06-12T04:26:15.616Z,979.52
2018-06-12T04:27:15.803Z,979.46
2018-06-12T04:28:15.985Z,979.48
2018-06-12T04:29:16.196Z,979.49
2018-06-12T04:30:16.383Z,979.48
2018-06-12T04:31:16.602Z,979.49
2018-06-12T04:32:16.816Z,979.46
2018-06-12T04:34:48.999Z,979.53
2018-06-12T04:35:49.174Z,979.55
2018-06-12T04:36:49.389Z,979.55
2018-06-12T04:37:49.589Z,979.55
2018-06-12T04:38:49.810Z,979.56
2018-06-12T04:39:50.013Z,979.55
2018-06-12T04:40:50.228Z,979.56
2018-06-12T04:41:50.431Z,979.57
2018-06-12T04:42:50.618Z,979.58
2018-06-12T04:43:50.808Z,979.54
2018-06-12T04:44:51.013Z,979.58
2018-06-12T04:45:51.231Z,979.54
2018-06-12T04:46:51.429Z,979.55
2018-06-12T04:47:51.632Z,979.57
2018-06-12T04:48:51.854Z,979.54
2018-06-12T04:49:52.225Z,979.55
2018-06-12T04:50:52.299Z,979.52
2018-06-12T04:51:52.513Z,979.55
2018-06-12T04:52:52.717Z,979.53
2018-06-12T04:53:52.922Z,979.54
2018-06-12T04:54:53.114Z,979.55
2018-06-12T04:55:53.312Z,979.53
2018-06-12T04:56:53.505Z,979.53
2018-06-12T04:57:53.699Z,979.52
2018-06-12T04:58:53.892Z,979.54
2018-06-12T04:59:54.093Z,979.54
2018-06-12T05:00:54.417Z,979.56
2018-06-12T05:01:54.513Z,979.58
2018-06-12T05:02:54.724Z,979.61
2018-06-12T05:03:54.915Z,979.65
2018-06-12T05:04:55.135Z,979.64
2018-06-12T05:05:55.337Z,979.68
2018-06-12T05:06:55.566Z,979.70
2018-06-12T05:07:55.758Z,979.68
2018-06-12T05:08:55.944Z,979.67
2018-06-12T05:09:56.158Z,979.73
2018-06-12T05:10:56.367Z,979.71
2018-06-12T05:11:56.718Z,979.73
2018-06-12T05:12:56.815Z,979.73
2018-06-12T05:13:57.030Z,979.71
2018-06-12T05:14:57.214Z,979.71
2018-06-12T05:15:57.414Z,979.68
2018-06-12T05:16:57.610Z,979.70
2018-06-12T05:17:57.815Z,979.69
2018-06-12T05:18:58.009Z,979.70
2018-06-12T05:19:58.266Z,979.71
2018-06-12T05:20:58.427Z,979.68
2018-06-12T05:21:58.622Z,979.71
2018-06-12T05:22:58.825Z,979.73
2018-06-12T05:23:59.035Z,979.70
2018-06-12T05:24:59.234Z,979.69
2018-06-12T05:25:59.448Z,979.70
2018-06-12T05:26:59.653Z,979.69
2018-06-12T05:27:59.836Z,979.68
2018-06-12T05:29:00.035Z,979.68
2018-06-12T05:30:00.297Z,979.72
2018-06-12T05:31:00.383Z,979.75
2018-06-12T05:32:00.577Z,979.76
2018-06-12T05:33:00.779Z,979.80
2018-06-12T05:34:00.970Z,979.79
2018-06-12T05:35:01.179Z,979.81
2018-06-12T05:36:01.359Z,979.81
2018-06-12T05:37:01.549Z,979.83
2018-06-12T05:38:01.745Z,979.87
2018-06-12T05:40:34.227Z,979.90
2018-06-12T05:41:34.021Z,979.93
2018-06-12T05:42:34.232Z,979.94
2018-06-12T05:43:34.448Z,979.93
2018-06-12T05:44:34.654Z,979.96
2018-06-12T05:45:34.870Z,979.98
2018-06-12T05:46:35.055Z,979.96
2018-06-12T05:47:35.243Z,979.95
2018-06-12T05:48:35.431Z,979.97
2018-06-12T05:49:35.645Z,979.99
2018-06-12T05:50:35.833Z,979.98
2018-06-12T05:51:36.033Z,980.03
2018-06-12T05:52:36.245Z,980.01
2018-06-12T05:53:36.476Z,980.03
2018-06-12T05:54:36.685Z,980.03
2018-06-12T05:55:36.895Z,980.06
2018-06-12T05:56:37.109Z,980.10
2018-06-12T05:57:37.324Z,980.10
2018-06-12T05:58:37.515Z,980.14
2018-06-12T05:59:37.727Z,980.16
2018-06-12T06:00:37.936Z,980.17
2018-06-12T06:01:38.156Z,980.16
2018-06-12T06:02:38.346Z,980.21
2018-06-12T06:03:38.554Z,980.22
2018-06-12T06:04:38.756Z,980.27
2018-06-12T06:05:38.947Z,980.21
2018-06-12T06:06:39.161Z,980.24
2018-06-12T06:07:39.348Z,980.23
2018-06-12T06:08:39.563Z,980.22
2018-06-12T06:09:39.763Z,980.18
2018-06-12T06:10:39.975Z,980.21
2018-06-12T06:11:40.154Z,980.22
2018-06-12T06:12:40.444Z,980.30
2018-06-12T06:13:40.506Z,980.34
2018-06-12T06:14:40.703Z,980.33
2018-06-12T06:15:40.893Z,980.32
2018-06-12T06:16:41.085Z,980.32
2018-06-12T06:17:41.296Z,980.25
2018-06-12T06:18:41.509Z,980.26
2018-06-12T06:19:41.708Z,980.25
2018-06-12T06:20:41.896Z,980.24
2018-06-12T06:21:42.087Z,980.32
2018-06-12T06:22:42.339Z,980.31
2018-06-12T06:23:42.482Z,980.36
2018-06-12T06:24:42.672Z,980.36
2018-06-12T06:25:42.888Z,980.35
2018-06-12T06:26:43.104Z,980.36
2018-06-12T06:27:43.296Z,980.38
2018-06-12T06:28:43.496Z,980.37
2018-06-12T06:29:43.719Z,980.37
2018-06-12T06:30:43.896Z,980.35
2018-06-12T06:31:44.107Z,980.38
2018-06-12T06:32:44.322Z,980.36
2018-06-12T06:33:44.516Z,980.37
2018-06-12T06:34:44.711Z,980.36
2018-06-12T06:35:44.912Z,980.43
2018-06-12T06:36:45.117Z,980.41
2018-06-12T06:37:45.306Z,980.43
2018-06-12T06:38:45.495Z,980.48
2018-06-12T06:39:45.694Z,980.46
2018-06-12T06:40:45.903Z,980.51
2018-06-12T06:41:46.117Z,980.51
2018-06-12T06:42:46.332Z,980.54
2018-06-12T06:43:46.532Z,980.56
2018-06-12T06:44:46.729Z,980.59
2018-06-12T06:45:46.926Z,980.62
2018-06-12T06:46:47.112Z,980.60
2018-06-12T06:47:47.325Z,980.58
2018-06-12T06:48:47.519Z,980.63
2018-06-12T06:49:47.727Z,980.66
2018-06-12T06:50:47.949Z,980.63
2018-06-12T06:51:48.149Z,980.60
2018-06-12T06:52:48.352Z,980.61
2018-06-12T06:53:48.544Z,980.59
2018-06-12T06:54:48.736Z,980.57
2018-06-12T06:55:48.936Z,980.58
2018-06-12T06:56:49.125Z,980.57
2018-06-12T06:57:49.334Z,980.52
2018-06-12T06:58:49.561Z,980.54
2018-06-12T06:59:49.769Z,980.53
2018-06-12T07:00:49.961Z,980.50
2018-06-12T07:01:50.173Z,980.51
2018-06-12T07:02:50.385Z,980.52
2018-06-12T07:03:50.595Z,980.53
2018-06-12T07:04:50.807Z,980.50
2018-06-12T07:05:51.003Z,980.49
2018-06-12T07:06:51.212Z,980.51
2018-06-12T07:07:51.421Z,980.52
2018-06-12T07:08:51.613Z,980.53
2018-06-12T07:09:51.812Z,980.54
2018-06-12T07:10:52.011Z,980.57
2018-06-12T07:11:52.202Z,980.53
2018-06-12T07:12:52.404Z,980.54
2018-06-12T07:13:52.606Z,980.56
2018-06-12T07:14:52.833Z,980.51
2018-06-12T07:15:53.036Z,980.54
2018-06-12T07:16:53.244Z,980.51
2018-06-12T07:17:53.456Z,980.55
2018-06-12T07:18:53.664Z,980.54
2018-06-12T07:19:53.874Z,980.56
2018-06-12T07:20:54.087Z,980.57
2018-06-12T07:21:54.339Z,980.56
2018-06-12T07:22:54.548Z,980.54
2018-06-12T07:23:54.734Z,980.58
2018-06-12T07:24:54.941Z,980.54
2018-06-12T07:25:55.139Z,980.56
2018-06-12T07:28:27.497Z,980.55
2018-06-12T07:29:27.674Z,980.57
2018-06-12T07:30:27.865Z,980.63
2018-06-12T07:31:28.072Z,980.58
2018-06-12T07:32:28.360Z,980.57
2018-06-12T07:33:28.447Z,980.55
2018-06-12T07:34:28.661Z,980.51
2018-06-12T07:35:28.920Z,980.51
2018-06-12T07:36:29.101Z,980.51
2018-06-12T07:37:29.352Z,980.49
2018-06-12T07:38:29.497Z,980.49
2018-06-12T07:39:29.694Z,980.49
2018-06-12T07:40:29.894Z,980.46
2018-06-12T07:41:30.105Z,980.46
2018-06-12T07:42:30.317Z,980.48
2018-06-12T07:43:30.631Z,980.45
2018-06-12T07:44:30.713Z,980.45
2018-06-12T07:45:30.913Z,980.47
2018-06-12T07:46:31.124Z,980.46
2018-06-12T07:47:31.327Z,980.44
2018-06-12T07:48:31.528Z,980.44
2018-06-12T07:49:31.723Z,980.45
2018-06-12T07:50:31.921Z,980.43
2018-06-12T07:51:32.114Z,980.45
2018-06-12T07:52:32.328Z,980.47
2018-06-12T07:53:32.525Z,980.49
2018-06-12T07:54:32.745Z,980.49
2018-06-12T07:55:32.958Z,980.52
2018-06-12T07:56:33.154Z,980.50
2018-06-12T07:57:33.359Z,980.57
2018-06-12T07:58:33.566Z,980.58
2018-06-12T07:59:33.769Z,980.55
2018-06-12T08:00:33.959Z,980.51
2018-06-12T08:01:34.159Z,980.55
2018-06-12T08:02:34.354Z,980.56
2018-06-12T08:05:06.482Z,980.58
2018-06-12T08:06:06.658Z,980.59
2018-06-12T08:07:06.956Z,980.61
2018-06-12T08:08:07.079Z,980.67
2018-06-12T08:09:07.298Z,980.62
2018-06-12T08:10:07.514Z,980.57
2018-06-12T08:11:07.710Z,980.66
2018-06-12T08:12:07.921Z,980.68
2018-06-12T08:13:08.218Z,980.65
2018-06-12T08:14:08.331Z,980.62
2018-06-12T08:15:08.588Z,980.61
2018-06-12T08:16:08.782Z,980.60
2018-06-12T08:17:08.989Z,980.56
2018-06-12T08:18:09.189Z,980.55
2018-06-12T08:19:09.406Z,980.60
2018-06-12T08:20:09.613Z,980.56
2018-06-12T08:21:09.805Z,980.60
2018-06-12T08:22:09.998Z,980.60
2018-06-12T08:23:10.206Z,980.60
2018-06-12T08:24:10.400Z,980.62
2018-06-12T08:25:10.620Z,980.67
2018-06-12T08:26:10.825Z,980.66
2018-06-12T08:27:11.027Z,980.68
2018-06-12T08:28:11.231Z,980.68
2018-06-12T08:29:11.427Z,980.75
2018-06-12T08:30:11.701Z,980.74
2018-06-12T08:31:11.848Z,980.76
2018-06-12T08:32:12.063Z,980.84
2018-06-12T08:33:12.264Z,980.92
2018-06-12T08:34:12.500Z,980.92
2018-06-12T08:35:12.667Z,981.01
2018-06-12T08:36:12.860Z,980.96
2018-06-12T08:37:13.078Z,981.26
2018-06-12T08:38:13.294Z,981.12
2018-06-12T08:39:13.514Z,980.99
2018-06-12T08:40:13.712Z,981.03
2018-06-12T08:41:13.929Z,980.99
2018-06-12T08:42:14.142Z,980.99
2018-06-12T08:43:14.341Z,981.00
2018-06-12T08:44:14.543Z,980.97
2018-06-12T08:45:14.757Z,980.97
2018-06-12T08:46:14.963Z,981.04
2018-06-12T08:47:15.158Z,981.10
2018-06-12T08:48:15.373Z,981.28
2018-06-12T08:49:15.596Z,981.75
2018-06-12T08:50:15.791Z,981.99
2018-06-12T08:51:15.998Z,981.96
2018-06-12T08:52:16.218Z,982.10
2018-06-12T08:53:16.433Z,982.21
2018-06-12T08:54:16.639Z,982.25
2018-06-12T08:55:16.847Z,982.27
2018-06-12T08:56:17.058Z,981.77
2018-06-12T08:57:17.265Z,982.13
2018-06-12T08:58:17.459Z,981.83
2018-06-12T08:59:17.657Z,981.99
2018-06-12T09:00:17.877Z,982.06
2018-06-12T09:01:18.094Z,981.69
2018-06-12T09:02:18.317Z,981.76
2018-06-12T09:03:18.520Z,981.71
2018-06-12T09:04:18.722Z,981.53
2018-06-12T09:06:50.931Z,981.45
2018-06-12T09:07:51.124Z,981.38
2018-06-12T09:08:51.338Z,981.24
2018-06-12T09:09:51.557Z,981.16
2018-06-12T09:10:51.780Z,981.17
2018-06-12T09:11:51.997Z,981.16
2018-06-12T09:12:52.212Z,981.19
2018-06-12T09:13:52.463Z,981.14
2018-06-12T09:14:52.682Z,981.11
2018-06-12T09:15:52.901Z,981.05
2018-06-12T09:16:53.103Z,981.03
2018-06-12T09:17:53.296Z,981.01
2018-06-12T09:18:53.492Z,980.96
2018-06-12T09:19:53.711Z,981.02
2018-06-12T09:20:53.913Z,981.01
2018-06-12T09:21:54.226Z,981.03
2018-06-12T09:22:54.313Z,981.04
2018-06-12T09:23:54.504Z,981.09
2018-06-12T09:24:54.703Z,981.09
2018-06-12T09:25:54.922Z,981.12
2018-06-12T09:26:55.144Z,981.04
2018-06-12T09:27:55.353Z,981.07
2018-06-12T09:28:55.556Z,981.11
2018-06-12T09:29:55.758Z,981.24
2018-06-12T09:30:55.974Z,981.98
2018-06-12T09:31:56.192Z,981.56
2018-06-12T09:32:56.395Z,981.40
2018-06-12T09:33:56.605Z,981.84
2018-06-12T09:34:56.829Z,981.12
2018-06-12T09:35:57.029Z,981.07
2018-06-12T09:36:57.253Z,981.26
2018-06-12T09:37:57.460Z,981.31
2018-06-12T09:38:57.659Z,981.41
2018-06-12T09:39:57.870Z,981.31
2018-06-12T09:40:58.080Z,981.32
2018-06-12T09:41:58.297Z,981.23
2018-06-12T09:42:58.497Z,981.29
2018-06-12T09:43:58.687Z,981.22
2018-06-12T09:44:58.892Z,981.24
2018-06-12T09:45:59.112Z,981.24
2018-06-12T09:46:59.344Z,981.16
2018-06-12T09:47:59.577Z,981.17
2018-06-12T09:48:59.779Z,981.06
2018-06-12T09:49:59.979Z,981.04
2018-06-12T09:51:00.180Z,981.05
2018-06-12T09:52:00.376Z,981.06
2018-06-12T09:53:00.577Z,981.00
2018-06-12T09:54:00.780Z,980.97
2018-06-12T09:55:01.015Z,980.98
2018-06-12T09:56:01.227Z,980.97
2018-06-12T09:57:01.428Z,980.95
2018-06-12T09:58:01.655Z,980.93
2018-06-12T09:59:01.855Z,980.93
2018-06-12T10:00:02.049Z,980.94
2018-06-12T10:01:02.269Z,980.90
2018-06-12T10:02:02.475Z,980.91
2018-06-12T10:03:02.757Z,980.93
2018-06-12T10:04:02.849Z,980.96
2018-06-12T10:05:03.051Z,980.95
2018-06-12T10:06:03.262Z,980.92
2018-06-12T10:07:03.456Z,980.93
2018-06-12T10:08:03.674Z,980.94
2018-06-12T10:09:03.884Z,980.90
2018-06-12T10:10:04.128Z,980.86
2018-06-12T10:11:04.303Z,980.86
2018-06-12T10:12:04.504Z,980.81
2018-06-12T10:13:04.709Z,980.84
2018-06-12T10:14:04.950Z,980.83
2018-06-12T10:15:05.160Z,980.79
2018-06-12T10:16:05.368Z,980.80
2018-06-12T10:17:05.580Z,980.77
2018-06-12T10:18:05.800Z,980.75
2018-06-12T10:19:06.014Z,980.81
2018-06-12T10:20:06.211Z,980.79
2018-06-12T10:21:06.426Z,980.81
2018-06-12T10:22:06.621Z,980.79
2018-06-12T10:23:06.846Z,980.82
2018-06-12T10:24:07.055Z,980.78
2018-06-12T10:25:07.313Z,980.82
2018-06-12T10:26:07.452Z,980.80
2018-06-12T10:27:07.646Z,980.84
2018-06-12T10:28:07.844Z,980.87
2018-06-12T10:29:08.072Z,980.90
2018-06-12T10:30:08.266Z,980.85
2018-06-12T10:31:08.473Z,980.89
2018-06-12T10:32:08.675Z,980.85
2018-06-12T10:33:08.883Z,980.89
2018-06-12T10:34:09.097Z,980.88
2018-06-12T10:35:09.288Z,980.87
2018-06-12T10:36:09.505Z,980.91
2018-06-12T10:37:09.786Z,980.86
2018-06-12T10:38:10.579Z,980.87
2018-06-12T10:39:10.163Z,980.85
2018-06-12T10:40:10.376Z,980.84
2018-06-12T10:41:10.594Z,980.84
2018-06-12T10:42:10.787Z,980.85
2018-06-12T10:43:11.003Z,980.83
2018-06-12T10:44:11.198Z,980.87
2018-06-12T10:45:11.389Z,980.84
2018-06-12T10:46:11.606Z,980.80
2018-06-12T10:47:11.802Z,980.89
2018-06-12T10:48:12.008Z,980.82
2018-06-12T10:49:12.222Z,980.84
2018-06-12T10:50:12.424Z,980.84
2018-06-12T10:51:12.636Z,980.80
2018-06-12T10:52:12.829Z,980.83
2018-06-12T10:53:13.049Z,980.82
2018-06-12T10:54:13.264Z,980.80
2018-06-12T10:55:13.473Z,980.85
2018-06-12T10:56:13.694Z,980.82
2018-06-12T10:57:13.909Z,980.81
2018-06-12T10:58:14.112Z,980.79
2018-06-12T10:59:14.448Z,980.76
2018-06-12T11:00:14.535Z,980.80
2018-06-12T11:01:14.740Z,980.80
2018-06-12T11:02:14.953Z,980.81
2018-06-12T11:03:15.145Z,980.80
2018-06-12T11:04:15.405Z,980.78
2018-06-12T11:05:15.569Z,980.79
2018-06-12T11:06:15.786Z,980.80
2018-06-12T11:07:15.978Z,980.81
2018-06-12T11:08:16.187Z,980.80
2018-06-12T11:09:16.380Z,980.77
2018-06-12T11:10:16.593Z,980.83
2018-06-12T11:11:16.815Z,980.80
2018-06-12T11:12:17.029Z,980.82
2018-06-12T11:13:17.249Z,980.81
2018-06-12T11:14:17.467Z,980.86
2018-06-12T11:15:17.684Z,980.83
2018-06-12T11:16:17.884Z,980.83
2018-06-12T11:17:18.077Z,980.87
2018-06-12T11:18:18.273Z,980.86
2018-06-12T11:19:18.475Z,980.90
2018-06-12T11:20:18.687Z,980.87
2018-06-12T11:21:18.904Z,980.86
2018-06-12T11:22:19.110Z,980.84
2018-06-12T11:23:19.324Z,980.87
2018-06-12T11:24:19.523Z,980.86
2018-06-12T11:25:19.736Z,980.86
2018-06-12T11:26:19.949Z,980.84
2018-06-12T11:27:20.196Z,980.83
2018-06-12T11:28:20.376Z,980.84
2018-06-12T11:29:20.573Z,980.86
2018-06-12T11:30:20.817Z,980.80
2018-06-12T11:31:21.014Z,980.83
2018-06-12T11:32:21.240Z,980.79
2018-06-12T11:33:22.119Z,980.80
2018-06-12T11:34:21.604Z,980.81
2018-06-12T11:35:21.831Z,980.82
2018-06-12T11:36:22.024Z,980.78
2018-06-12T11:37:22.244Z,980.77
2018-06-12T11:38:22.457Z,980.76
2018-06-12T11:39:22.672Z,980.82
2018-06-12T11:40:22.887Z,980.74
2018-06-12T11:41:23.118Z,980.78
2018-06-12T11:42:23.314Z,980.70
2018-06-12T11:43:23.543Z,980.70
2018-06-12T11:45:55.910Z,980.71
2018-06-12T11:46:56.088Z,980.74
2018-06-12T11:47:56.283Z,980.74
2018-06-12T11:48:56.499Z,980.76
2018-06-12T11:49:56.707Z,980.71
2018-06-12T11:50:56.938Z,980.74
2018-06-12T11:51:57.133Z,980.76
2018-06-12T11:52:57.335Z,980.76
2018-06-12T11:53:57.529Z,980.75
2018-06-12T11:54:57.743Z,980.74
2018-06-12T11:55:58.001Z,980.73
2018-06-12T11:56:58.079Z,980.74
2018-06-12T11:57:58.294Z,980.74
2018-06-12T11:58:58.515Z,980.75
2018-06-12T11:59:58.736Z,980.76
2018-06-12T12:00:58.928Z,980.72
2018-06-12T12:01:59.124Z,980.74
2018-06-12T12:02:59.332Z,980.70
2018-06-12T12:03:59.540Z,980.71
2018-06-12T12:04:59.760Z,980.71
2018-06-12T12:05:59.968Z,980.72
2018-06-12T12:07:00.188Z,980.69
2018-06-12T12:09:32.332Z,980.72
2018-06-12T12:10:32.502Z,980.71
2018-06-12T12:11:32.713Z,980.73
2018-06-12T12:12:32.918Z,980.73
2018-06-12T12:13:33.126Z,980.71
2018-06-12T12:14:33.348Z,980.71
2018-06-12T12:17:05.219Z,980.72
2018-06-12T12:18:05.400Z,980.73
2018-06-12T12:19:05.609Z,980.79
2018-06-12T12:20:05.824Z,980.77
2018-06-12T12:21:06.014Z,980.76
2018-06-12T12:22:06.236Z,980.75
2018-06-12T12:23:06.443Z,980.74
2018-06-12T12:24:06.633Z,980.72
2018-06-12T12:25:06.827Z,980.70
2018-06-12T12:26:07.043Z,980.71
2018-06-12T12:27:07.256Z,980.71
2018-06-12T12:28:07.470Z,980.66
2018-06-12T12:29:07.670Z,980.72
2018-06-12T12:30:07.883Z,980.67
2018-06-12T12:31:08.092Z,980.71
2018-06-12T12:32:08.418Z,980.66
2018-06-12T12:33:08.492Z,980.66
2018-06-12T12:34:08.686Z,980.67
2018-06-12T12:35:08.887Z,980.61
2018-06-12T12:36:09.087Z,980.58
2018-06-12T12:37:09.286Z,980.66
2018-06-12T12:38:09.477Z,980.60
2018-06-12T12:39:09.685Z,980.62
2018-06-12T12:40:10.673Z,980.64
2018-06-12T12:41:10.127Z,980.62
2018-06-12T12:42:10.344Z,980.60
2018-06-12T12:43:10.664Z,980.63
2018-06-12T12:44:10.751Z,980.64
2018-06-12T12:45:10.953Z,980.65
2018-06-12T12:46:11.164Z,980.67
2018-06-12T12:47:11.374Z,980.66
2018-06-12T12:48:11.600Z,980.66
2018-06-12T12:49:11.808Z,980.67
2018-06-12T12:50:12.006Z,980.61
2018-06-12T12:51:12.226Z,980.61
2018-06-12T12:52:12.458Z,980.60